createdAt,value
2023-02-27T00:00:14.619Z,96101.44
2023-02-27T00:02:47.499Z,96116.19
2023-02-27T00:05:14.765Z,96109.38
2023-02-27T00:07:44.045Z,96120.16
2023-02-27T00:10:12.544Z,96117.59
2023-02-27T00:12:39.342Z,96116.56
2023-02-27T00:15:10.901Z,96120.75
2023-02-27T00:17:38.284Z,96122.53
2023-02-27T00:20:07.231Z,96105.00
2023-02-27T00:22:33.912Z,96093.81
2023-02-27T00:25:00.447Z,96109.97
2023-02-27T00:27:27.024Z,96123.66
2023-02-27T00:29:53.459Z,96123.09
2023-02-27T00:32:20.005Z,96117.53
2023-02-27T00:34:47.097Z,96109.75
2023-02-27T00:37:13.994Z,96109.16
2023-02-27T00:39:40.450Z,96073.09
2023-02-27T00:42:07.154Z,96114.19
2023-02-27T00:44:33.765Z,96115.75
2023-02-27T00:47:00.481Z,96067.47
2023-02-27T00:49:27.073Z,96116.06
2023-02-27T00:51:53.603Z,96116.69
2023-02-27T00:54:20.812Z,96129.00
2023-02-27T00:56:47.345Z,96097.78
2023-02-27T00:59:13.912Z,96135.16
2023-02-27T01:01:40.611Z,96049.50
2023-02-27T01:04:07.551Z,96124.22
2023-02-27T01:06:34.185Z,96133.25
2023-02-27T01:09:00.760Z,96103.50
2023-02-27T01:11:27.613Z,96087.81
2023-02-27T01:13:54.500Z,96137.19
2023-02-27T01:16:20.977Z,96057.66
2023-02-27T01:18:47.542Z,96011.13
2023-02-27T01:21:15.564Z,96131.81
2023-02-27T01:23:44.984Z,96105.31
2023-02-27T01:26:11.937Z,96042.19
2023-02-27T01:28:38.605Z,96028.38
2023-02-27T01:31:05.262Z,96099.19
2023-02-27T01:33:31.945Z,96100.75
2023-02-27T01:36:00.379Z,96091.97
2023-02-27T01:38:26.851Z,96017.03
2023-02-27T01:40:53.417Z,96130.44
2023-02-27T01:43:21.861Z,96097.16
2023-02-27T01:45:49.253Z,96137.59
2023-02-27T01:48:26.765Z,96109.50
2023-02-27T01:50:58.387Z,96141.00
2023-02-27T01:53:28.620Z,96030.44
2023-02-27T01:55:59.220Z,96129.06
2023-02-27T01:58:27.054Z,96110.88
2023-02-27T02:00:54.653Z,96127.28
2023-02-27T02:03:37.518Z,96134.06
2023-02-27T02:06:06.049Z,96133.28
2023-02-27T02:08:36.925Z,96121.25
2023-02-27T02:11:04.032Z,96142.97
2023-02-27T02:13:31.633Z,96067.09
2023-02-27T02:16:12.248Z,96089.06
2023-02-27T02:19:13.638Z,96075.66
2023-02-27T02:21:40.048Z,96135.66
2023-02-27T02:24:44.141Z,96112.34
2023-02-27T02:27:19.923Z,96137.84
2023-02-27T02:30:08.380Z,96131.28
2023-02-27T02:33:03.103Z,96115.50
2023-02-27T02:35:51.462Z,96130.03
2023-02-27T02:38:36.852Z,96118.91
2023-02-27T02:41:20.603Z,96114.13
2023-02-27T02:44:24.313Z,96126.44
2023-02-27T02:47:19.563Z,96089.97
2023-02-27T02:50:13.182Z,96122.91
2023-02-27T02:52:58.796Z,96103.16
2023-02-27T02:55:43.704Z,96112.13
2023-02-27T02:58:24.941Z,96071.63
2023-02-27T03:01:03.471Z,96100.16
2023-02-27T03:03:39.322Z,96104.94
2023-02-27T03:06:11.658Z,96111.28
2023-02-27T03:08:46.380Z,96127.44
2023-02-27T03:11:13.228Z,96114.88
2023-02-27T03:13:56.549Z,96059.50
2023-02-27T03:16:41.225Z,96063.66
2023-02-27T03:19:21.080Z,96116.03
2023-02-27T03:22:02.729Z,96080.03
2023-02-27T03:24:39.938Z,96093.88
2023-02-27T03:27:09.135Z,96109.69
2023-02-27T03:29:46.592Z,96106.09
2023-02-27T03:32:18.775Z,96100.69
2023-02-27T03:34:45.950Z,96116.88
2023-02-27T03:37:25.008Z,96126.81
2023-02-27T03:40:01.352Z,96117.66
2023-02-27T03:42:41.796Z,96137.94
2023-02-27T03:45:19.536Z,96135.16
2023-02-27T03:47:46.589Z,96111.81
2023-02-27T03:50:13.403Z,96128.41
2023-02-27T03:52:40.994Z,96133.75
2023-02-27T03:55:18.257Z,96148.47
2023-02-27T03:57:48.009Z,96140.09
2023-02-27T04:00:19.294Z,96152.69
2023-02-27T04:02:50.490Z,96134.75
2023-02-27T04:05:21.797Z,96141.72
2023-02-27T04:08:02.949Z,96148.09
2023-02-27T04:10:41.440Z,96146.34
2023-02-27T04:13:29.632Z,96155.47
2023-02-27T04:16:15.727Z,96160.69
2023-02-27T04:19:16.367Z,96158.66
2023-02-27T04:21:48.773Z,96161.03
2023-02-27T04:24:51.032Z,96152.63
2023-02-27T04:27:35.803Z,96153.84
2023-02-27T04:30:10.433Z,96163.81
2023-02-27T04:32:39.942Z,96157.88
2023-02-27T04:35:15.613Z,96161.44
2023-02-27T04:38:05.403Z,96156.69
2023-02-27T04:40:43.833Z,96146.34
2023-02-27T04:43:14.857Z,96153.63
2023-02-27T04:45:44.810Z,96152.06
2023-02-27T04:48:20.789Z,96150.94
2023-02-27T04:50:53.950Z,96140.78
2023-02-27T04:53:37.669Z,96143.31
2023-02-27T04:56:10.462Z,96149.50
2023-02-27T04:58:41.863Z,96158.88
2023-02-27T05:01:26.388Z,96150.47
2023-02-27T05:03:55.169Z,96161.06
2023-02-27T05:06:27.395Z,96143.16
2023-02-27T05:08:59.574Z,96147.94
2023-02-27T05:11:49.143Z,96153.31
2023-02-27T05:14:21.642Z,96145.09
2023-02-27T05:16:54.142Z,96157.44
2023-02-27T05:19:21.081Z,96119.59
2023-02-27T05:22:11.072Z,96165.88
2023-02-27T05:25:00.230Z,96142.69
2023-02-27T05:27:46.866Z,96161.81
2023-02-27T05:30:38.809Z,96161.00
2023-02-27T05:33:13.593Z,96170.03
2023-02-27T05:35:49.053Z,96163.28
2023-02-27T05:38:25.548Z,96155.66
2023-02-27T05:41:03.736Z,96167.00
2023-02-27T05:43:42.317Z,96159.81
2023-02-27T05:46:17.342Z,96167.41
2023-02-27T05:48:59.623Z,96168.97
2023-02-27T05:51:29.737Z,96152.41
2023-02-27T05:54:39.963Z,96174.31
2023-02-27T05:57:10.385Z,96174.56
2023-02-27T05:59:55.207Z,96174.56
2023-02-27T06:02:21.815Z,96148.06
2023-02-27T06:04:48.558Z,96163.94
2023-02-27T06:07:15.988Z,96160.00
2023-02-27T06:09:44.394Z,96122.84
2023-02-27T06:12:10.897Z,96164.69
2023-02-27T06:14:37.355Z,96164.75
2023-02-27T06:17:03.980Z,96145.22
2023-02-27T06:19:30.497Z,96177.91
2023-02-27T06:21:56.922Z,96178.25
2023-02-27T06:24:23.346Z,96170.75
2023-02-27T06:26:51.924Z,96142.34
2023-02-27T06:29:18.421Z,96173.50
2023-02-27T06:31:44.889Z,96182.69
2023-02-27T06:34:11.565Z,96186.44
2023-02-27T06:36:37.996Z,96189.19
2023-02-27T06:39:04.931Z,96168.09
2023-02-27T06:41:31.473Z,96194.00
2023-02-27T06:43:58.117Z,96203.22
2023-02-27T06:46:24.898Z,96206.38
2023-02-27T06:48:51.595Z,96182.91
2023-02-27T06:51:18.102Z,96193.25
2023-02-27T06:53:44.680Z,96198.25
2023-02-27T06:56:11.127Z,96197.88
2023-02-27T06:58:37.641Z,96194.06
2023-02-27T07:01:04.227Z,96201.66
2023-02-27T07:03:30.796Z,96177.75
2023-02-27T07:05:58.569Z,96197.69
2023-02-27T07:08:25.097Z,96155.44
2023-02-27T07:10:51.554Z,96205.31
2023-02-27T07:13:19.711Z,96198.72
2023-02-27T07:15:46.595Z,96184.78
2023-02-27T07:18:13.177Z,96206.09
2023-02-27T07:20:40.228Z,96196.59
2023-02-27T07:23:06.894Z,96192.56
2023-02-27T07:25:33.345Z,96176.00
2023-02-27T07:27:59.801Z,96199.78
2023-02-27T07:30:26.619Z,96183.63
2023-02-27T07:32:55.370Z,96191.00
2023-02-27T07:35:22.650Z,96159.50
2023-02-27T07:37:49.174Z,96193.84
2023-02-27T07:40:15.724Z,96153.66
2023-02-27T07:42:42.420Z,96201.16
2023-02-27T07:45:09.903Z,96217.72
2023-02-27T07:47:36.865Z,96184.63
2023-02-27T07:50:04.782Z,96184.81
2023-02-27T07:52:32.429Z,96219.28
2023-02-27T07:54:58.891Z,96220.53
2023-02-27T07:57:25.466Z,96183.81
2023-02-27T07:59:51.979Z,96222.53
2023-02-27T08:02:19.029Z,96216.56
2023-02-27T08:04:45.654Z,96225.59
2023-02-27T08:07:12.110Z,96178.13
2023-02-27T08:09:38.572Z,96222.59
2023-02-27T08:12:05.222Z,96224.78
2023-02-27T08:14:31.749Z,96229.19
2023-02-27T08:17:02.983Z,96236.97
2023-02-27T08:19:30.592Z,96190.69
2023-02-27T08:21:59.462Z,96225.38
2023-02-27T08:24:26.093Z,96224.56
2023-02-27T08:26:52.546Z,96233.38
2023-02-27T08:29:21.555Z,96138.09
2023-02-27T08:31:57.218Z,96207.63
2023-02-27T08:34:23.785Z,96194.13
2023-02-27T08:36:50.405Z,96209.84
2023-02-27T08:39:20.130Z,96149.06
2023-02-27T08:41:52.799Z,96231.97
2023-02-27T08:44:21.114Z,96254.31
2023-02-27T08:46:48.682Z,96182.34
2023-02-27T08:49:15.286Z,96254.69
2023-02-27T08:51:49.163Z,96187.50
2023-02-27T08:54:16.199Z,96193.50
2023-02-27T08:56:44.562Z,96244.91
2023-02-27T08:59:13.265Z,96233.78
2023-02-27T09:01:40.230Z,96226.94
2023-02-27T09:04:08.386Z,96268.66
2023-02-27T09:06:37.332Z,96197.50
2023-02-27T09:09:07.324Z,96272.44
2023-02-27T09:11:34.132Z,96186.75
2023-02-27T09:14:06.188Z,96209.25
2023-02-27T09:16:32.779Z,96274.25
2023-02-27T09:18:59.509Z,96263.47
2023-02-27T09:21:27.183Z,96233.56
2023-02-27T09:24:02.622Z,96273.03
2023-02-27T09:26:44.311Z,96205.88
2023-02-27T09:29:12.526Z,96265.06
2023-02-27T09:31:40.798Z,96270.84
2023-02-27T09:34:07.749Z,96281.44
2023-02-27T09:36:34.232Z,96271.66
2023-02-27T09:39:00.901Z,96288.81
2023-02-27T09:41:52.397Z,96289.59
2023-02-27T09:44:46.672Z,96291.81
2023-02-27T09:47:30.265Z,96276.84
2023-02-27T09:50:04.193Z,96302.13
2023-02-27T09:52:32.868Z,96304.75
2023-02-27T09:54:59.633Z,96309.13
2023-02-27T09:58:02.064Z,96283.16
2023-02-27T10:00:40.587Z,96314.28
2023-02-27T10:03:12.929Z,96322.06
2023-02-27T10:05:49.654Z,96316.06
2023-02-27T10:08:39.118Z,96304.69
2023-02-27T10:11:13.795Z,96317.88
2023-02-27T10:14:25.847Z,96328.25
2023-02-27T10:16:54.003Z,96327.47
2023-02-27T10:19:28.787Z,96312.13
2023-02-27T10:21:58.125Z,96296.75
2023-02-27T10:24:40.404Z,96332.66
2023-02-27T10:27:15.844Z,96328.69
2023-02-27T10:29:42.765Z,96305.31
2023-02-27T10:32:24.884Z,96343.59
2023-02-27T10:35:05.437Z,96325.25
2023-02-27T10:37:32.575Z,96346.41
2023-02-27T10:40:04.439Z,96342.25
2023-02-27T10:42:38.248Z,96328.88
2023-02-27T10:45:06.004Z,96332.88
2023-02-27T10:47:32.709Z,96325.09
2023-02-27T10:50:00.331Z,96341.06
2023-02-27T10:52:26.949Z,96327.09
2023-02-27T10:54:53.647Z,96332.66
2023-02-27T10:57:40.917Z,96341.06
2023-02-27T11:00:23.173Z,96343.66
2023-02-27T11:02:52.202Z,96340.44
2023-02-27T11:05:24.765Z,96344.63
2023-02-27T11:07:51.692Z,96338.66
2023-02-27T11:10:22.073Z,96336.47
2023-02-27T11:13:02.797Z,96357.22
2023-02-27T11:15:32.585Z,96359.81
2023-02-27T11:18:31.345Z,96340.84
2023-02-27T11:21:30.013Z,96349.22
2023-02-27T11:24:08.808Z,96342.25
2023-02-27T11:26:38.913Z,96298.97
2023-02-27T11:29:17.281Z,96341.44
2023-02-27T11:32:13.494Z,96317.09
2023-02-27T11:34:47.830Z,96331.66
2023-02-27T11:37:35.723Z,96338.03
2023-02-27T11:40:14.513Z,96334.03
2023-02-27T11:42:51.081Z,96333.84
2023-02-27T11:46:05.244Z,96334.22
2023-02-27T11:48:17.472Z,96327.25
2023-02-27T11:51:09.244Z,96331.44
2023-02-27T11:54:00.308Z,96324.66
2023-02-27T11:56:35.759Z,96324.66
2023-02-27T11:59:13.605Z,96312.88
2023-02-27T12:01:50.153Z,96313.88
2023-02-27T12:04:24.232Z,96307.91
2023-02-27T12:07:10.727Z,96321.44
2023-02-27T12:10:01.930Z,96319.63
2023-02-27T12:12:36.476Z,96311.88
2023-02-27T12:15:16.634Z,96319.44
2023-02-27T12:17:58.133Z,96322.63
2023-02-27T12:20:43.367Z,96325.66
2023-02-27T12:23:19.477Z,96314.69
2023-02-27T12:25:52.636Z,96302.34
2023-02-27T12:28:43.302Z,96331.44
2023-02-27T12:31:35.939Z,96297.34
2023-02-27T12:34:12.824Z,96306.72
2023-02-27T12:36:39.317Z,96317.91
2023-02-27T12:39:22.508Z,96313.72
2023-02-27T12:42:33.095Z,96325.84
2023-02-27T12:45:02.664Z,96323.66
2023-02-27T12:48:06.806Z,96327.06
2023-02-27T12:50:56.056Z,96326.47
2023-02-27T12:54:08.212Z,96321.91
2023-02-27T12:56:50.442Z,96322.69
2023-02-27T12:59:39.960Z,96328.28
2023-02-27T13:02:35.801Z,96321.66
2023-02-27T13:05:29.893Z,96321.66
2023-02-27T13:08:34.010Z,96328.25
2023-02-27T13:11:11.287Z,96300.72
2023-02-27T13:13:48.817Z,96326.47
2023-02-27T13:16:19.854Z,96319.28
2023-02-27T13:18:58.850Z,96330.66
2023-02-27T13:21:25.981Z,96327.66
2023-02-27T13:24:01.986Z,96314.91
2023-02-27T13:26:38.225Z,96306.72
2023-02-27T13:29:06.408Z,96310.91
2023-02-27T13:32:04.924Z,96323.06
2023-02-27T13:34:46.494Z,96310.09
2023-02-27T13:37:12.960Z,96312.69
2023-02-27T13:39:39.767Z,96317.47
2023-02-27T13:42:35.556Z,96316.47
2023-02-27T13:45:05.133Z,96316.47
2023-02-27T13:47:40.727Z,96319.66
2023-02-27T13:50:21.103Z,96318.28
2023-02-27T13:52:47.946Z,96304.72
2023-02-27T13:55:28.484Z,96316.69
2023-02-27T13:57:58.867Z,96289.16
2023-02-27T14:00:29.055Z,96327.44
2023-02-27T14:03:00.469Z,96310.25
2023-02-27T14:05:35.873Z,96305.72
2023-02-27T14:08:23.266Z,96318.25
2023-02-27T14:11:29.029Z,96321.25
2023-02-27T14:13:57.607Z,96314.09
2023-02-27T14:16:39.856Z,96330.28
2023-02-27T14:19:17.142Z,96320.09
2023-02-27T14:22:01.154Z,96320.31
2023-02-27T14:25:01.131Z,96319.09
2023-02-27T14:27:48.044Z,96298.56
2023-02-27T14:30:40.892Z,96317.91
2023-02-27T14:33:33.372Z,96311.31
2023-02-27T14:36:10.859Z,96297.94
2023-02-27T14:38:39.067Z,96289.97
2023-02-27T14:41:48.234Z,96319.88
2023-02-27T14:44:45.735Z,96328.25
2023-02-27T14:47:24.494Z,96319.31
2023-02-27T14:49:51.586Z,96328.28
2023-02-27T14:52:29.696Z,96305.13
2023-02-27T14:55:29.534Z,96334.88
2023-02-27T14:58:27.061Z,96335.06
2023-02-27T15:01:10.192Z,96314.91
2023-02-27T15:03:49.230Z,96304.38
2023-02-27T15:06:19.380Z,96311.31
2023-02-27T15:08:57.428Z,96312.31
2023-02-27T15:11:25.375Z,96322.91
2023-02-27T15:14:59.219Z,96335.88
2023-02-27T15:17:39.173Z,96306.34
2023-02-27T15:20:30.075Z,96343.25
2023-02-27T15:22:58.021Z,96334.25
2023-02-27T15:25:37.330Z,96333.88
2023-02-27T15:28:23.023Z,96342.66
2023-02-27T15:30:53.695Z,96347.84
2023-02-27T15:33:28.303Z,96327.88
2023-02-27T15:35:55.980Z,96346.44
2023-02-27T15:38:35.254Z,96348.84
2023-02-27T15:41:03.703Z,96360.59
2023-02-27T15:43:31.152Z,96356.63
2023-02-27T15:45:58.400Z,96342.66
2023-02-27T15:48:25.693Z,96345.84
2023-02-27T15:50:56.700Z,96355.41
2023-02-27T15:53:25.776Z,96358.22
2023-02-27T15:55:57.919Z,96354.22
2023-02-27T15:58:29.584Z,96360.19
2023-02-27T16:01:02.601Z,96358.22
2023-02-27T16:03:34.787Z,96364.97
2023-02-27T16:06:01.517Z,96367.19
2023-02-27T16:08:56.358Z,96374.56
2023-02-27T16:11:31.912Z,96366.00
2023-02-27T16:13:59.284Z,96372.38
2023-02-27T16:16:34.953Z,96383.34
2023-02-27T16:19:24.367Z,96385.31
2023-02-27T16:22:13.735Z,96389.31
2023-02-27T16:24:40.867Z,96369.16
2023-02-27T16:27:25.811Z,96387.91
2023-02-27T16:29:56.687Z,96395.69
2023-02-27T16:32:56.442Z,96401.28
2023-02-27T16:35:23.732Z,96392.06
2023-02-27T16:37:51.407Z,96402.84
2023-02-27T16:40:27.335Z,96395.06
2023-02-27T16:42:57.271Z,96409.81
2023-02-27T16:45:26.513Z,96414.81
2023-02-27T16:47:56.948Z,96419.59
2023-02-27T16:50:38.608Z,96424.75
2023-02-27T16:53:06.880Z,96426.53
2023-02-27T16:55:33.926Z,96422.56
2023-02-27T16:58:00.663Z,96420.94
2023-02-27T17:00:27.130Z,96401.97
2023-02-27T17:02:54.716Z,96408.34
2023-02-27T17:05:21.236Z,96411.34
2023-02-27T17:07:48.663Z,96421.94
2023-02-27T17:10:17.189Z,96441.09
2023-02-27T17:12:44.125Z,96430.03
2023-02-27T17:15:10.867Z,96440.41
2023-02-27T17:17:37.735Z,96445.00
2023-02-27T17:20:07.218Z,96425.06
2023-02-27T17:22:39.390Z,96446.63
2023-02-27T17:25:07.442Z,96448.44
2023-02-27T17:27:34.229Z,96455.84
2023-02-27T17:30:00.794Z,96407.91
2023-02-27T17:32:27.304Z,96453.41
2023-02-27T17:34:55.223Z,96409.06
2023-02-27T17:37:22.122Z,96457.44
2023-02-27T17:39:49.193Z,96468.59
2023-02-27T17:42:18.461Z,96411.84
2023-02-27T17:44:46.386Z,96453.94
2023-02-27T17:47:13.433Z,96464.50
2023-02-27T17:49:40.055Z,96478.06
2023-02-27T17:52:09.513Z,96472.31
2023-02-27T17:54:36.140Z,96439.31
2023-02-27T17:57:04.725Z,96491.00
2023-02-27T17:59:31.623Z,96457.44
2023-02-27T18:01:58.518Z,96485.19
2023-02-27T18:04:25.520Z,96475.38
2023-02-27T18:06:52.037Z,96488.72
2023-02-27T18:09:18.472Z,96487.28
2023-02-27T18:11:44.964Z,96469.94
2023-02-27T18:14:11.474Z,96489.09
2023-02-27T18:16:38.022Z,96496.50
2023-02-27T18:19:06.436Z,96502.91
2023-02-27T18:21:33.397Z,96497.13
2023-02-27T18:24:00.260Z,96503.72
2023-02-27T18:26:31.158Z,96501.28
2023-02-27T18:29:04.233Z,96478.44
2023-02-27T18:31:34.255Z,96501.41
2023-02-27T18:34:01.338Z,96512.63
2023-02-27T18:36:29.393Z,96487.22
2023-02-27T18:38:56.405Z,96501.41
2023-02-27T18:41:22.921Z,96490.44
2023-02-27T18:43:49.690Z,96495.66
2023-02-27T18:46:16.623Z,96509.47
2023-02-27T18:48:44.694Z,96500.03
2023-02-27T18:51:14.473Z,96513.78
2023-02-27T18:53:44.237Z,96514.25
2023-02-27T18:56:11.777Z,96494.50
2023-02-27T18:58:38.396Z,96516.63
2023-02-27T19:01:07.250Z,96529.41
2023-02-27T19:03:35.596Z,96520.59
2023-02-27T19:06:03.455Z,96517.56
2023-02-27T19:08:30.360Z,96521.53
2023-02-27T19:10:57.508Z,96523.13
2023-02-27T19:13:26.243Z,96520.84
2023-02-27T19:15:53.542Z,96529.75
2023-02-27T19:18:21.207Z,96513.09
2023-02-27T19:20:47.955Z,96515.50
2023-02-27T19:23:14.405Z,96515.13
2023-02-27T19:25:42.493Z,96533.06
2023-02-27T19:28:11.045Z,96526.84
2023-02-27T19:30:39.515Z,96520.28
2023-02-27T19:33:06.074Z,96529.03
2023-02-27T19:35:32.599Z,96513.75
2023-02-27T19:37:59.130Z,96483.03
2023-02-27T19:40:26.501Z,96509.38
2023-02-27T19:42:52.973Z,96506.63
2023-02-27T19:45:21.541Z,96517.25
2023-02-27T19:47:47.967Z,96493.16
2023-02-27T19:50:14.891Z,96515.00
2023-02-27T19:52:41.348Z,96481.94
2023-02-27T19:55:08.503Z,96509.22
2023-02-27T19:57:36.829Z,96500.91
2023-02-27T20:00:08.640Z,96497.88
2023-02-27T20:02:41.971Z,96509.84
2023-02-27T20:05:08.943Z,96489.91
2023-02-27T20:07:35.404Z,96515.38
2023-02-27T20:10:01.899Z,96466.31
2023-02-27T20:12:28.689Z,96511.63
2023-02-27T20:14:55.148Z,96481.81
2023-02-27T20:17:21.627Z,96505.69
2023-02-27T20:19:48.072Z,96495.66
2023-02-27T20:22:15.866Z,96507.31
2023-02-27T20:24:44.662Z,96470.69
2023-02-27T20:27:12.211Z,96507.31
2023-02-27T20:29:38.831Z,96502.19
2023-02-27T20:32:05.447Z,96492.22
2023-02-27T20:34:32.031Z,96499.06
2023-02-27T20:36:59.793Z,96485.94
2023-02-27T20:39:27.885Z,96487.91
2023-02-27T20:41:54.338Z,96492.50
2023-02-27T20:44:20.801Z,96500.03
2023-02-27T20:46:49.300Z,96488.78
2023-02-27T20:49:20.745Z,96482.19
2023-02-27T20:51:47.411Z,96468.53
2023-02-27T20:54:20.079Z,96484.91
2023-02-27T20:56:48.395Z,96497.72
2023-02-27T20:59:16.612Z,96486.81
2023-02-27T21:01:51.150Z,96488.53
2023-02-27T21:04:42.406Z,96491.13
2023-02-27T21:07:14.626Z,96486.75
2023-02-27T21:09:41.464Z,96477.03
2023-02-27T21:12:09.190Z,96485.25
2023-02-27T21:14:36.319Z,96431.19
2023-02-27T21:17:06.787Z,96439.72
2023-02-27T21:19:33.463Z,96469.44
2023-02-27T21:22:00.160Z,96482.28
2023-02-27T21:24:26.652Z,96481.13
2023-02-27T21:26:53.187Z,96480.09
2023-02-27T21:29:21.227Z,96484.72
2023-02-27T21:31:49.570Z,96472.53
2023-02-27T21:34:25.319Z,96487.31
2023-02-27T21:36:52.553Z,96472.78
2023-02-27T21:39:25.895Z,96478.44
2023-02-27T21:41:53.137Z,96473.16
2023-02-27T21:44:24.838Z,96466.63
2023-02-27T21:46:52.192Z,96468.00
2023-02-27T21:49:22.549Z,96475.97
2023-02-27T21:51:49.892Z,96474.28
2023-02-27T21:54:17.391Z,96467.22
2023-02-27T21:56:45.258Z,96469.63
2023-02-27T21:59:12.259Z,96453.63
2023-02-27T22:01:38.848Z,96436.66
2023-02-27T22:04:06.362Z,96463.97
2023-02-27T22:06:34.154Z,96452.09
2023-02-27T22:09:04.959Z,96435.31
2023-02-27T22:11:32.796Z,96460.06
2023-02-27T22:13:59.245Z,96447.13
2023-02-27T22:16:25.747Z,96449.34
2023-02-27T22:18:52.832Z,96442.94
2023-02-27T22:21:23.366Z,96450.72
2023-02-27T22:23:52.575Z,96448.25
2023-02-27T22:26:25.130Z,96452.91
2023-02-27T22:28:59.303Z,96449.72
2023-02-27T22:31:28.980Z,96437.31
2023-02-27T22:34:00.012Z,96436.56
2023-02-27T22:36:29.153Z,96435.56
2023-02-27T22:38:56.770Z,96437.69
2023-02-27T22:41:28.992Z,96438.13
2023-02-27T22:43:57.392Z,96430.47
2023-02-27T22:46:26.822Z,96427.91
2023-02-27T22:48:55.473Z,96433.56
2023-02-27T22:51:24.451Z,96416.56
2023-02-27T22:53:51.506Z,96419.72
2023-02-27T22:56:17.976Z,96411.94
2023-02-27T22:58:45.473Z,96414.31
2023-02-27T23:01:18.815Z,96408.47
2023-02-27T23:03:47.236Z,96378.47
2023-02-27T23:06:19.973Z,96414.78
2023-02-27T23:08:46.635Z,96408.91
2023-02-27T23:11:14.889Z,96409.69
2023-02-27T23:13:41.714Z,96382.19
2023-02-27T23:16:13.538Z,96410.13
2023-02-27T23:18:46.066Z,96401.28
2023-02-27T23:21:14.239Z,96414.19
2023-02-27T23:23:40.729Z,96411.22
2023-02-27T23:26:07.885Z,96406.78
2023-02-27T23:28:36.709Z,96370.38
2023-02-27T23:31:04.824Z,96414.13
2023-02-27T23:33:31.735Z,96413.38
2023-02-27T23:35:58.612Z,96405.88
2023-02-27T23:38:26.544Z,96417.44
2023-02-27T23:40:54.016Z,96405.94
2023-02-27T23:43:40.036Z,96414.59
2023-02-27T23:46:12.327Z,96401.06
2023-02-27T23:48:39.320Z,96407.22
2023-02-27T23:51:07.108Z,96408.03
2023-02-27T23:53:35.392Z,96403.81
2023-02-27T23:56:11.625Z,96410.63
2023-02-27T23:58:38.072Z,96395.25
